createdAt,value
2023-05-20T00:01:43.159Z,18.23
2023-05-20T00:04:28.605Z,19.00
2023-05-20T00:07:14.243Z,22.08
2023-05-20T00:09:59.895Z,21.05
2023-05-20T00:12:45.786Z,20.35
2023-05-20T00:15:32.248Z,19.88
2023-05-20T00:18:18.149Z,20.08
2023-05-20T00:21:03.431Z,24.73
2023-05-20T00:23:48.731Z,18.63
2023-05-20T00:26:34.112Z,19.65
2023-05-20T00:29:23.040Z,20.80
2023-05-20T00:32:08.411Z,24.20
2023-05-20T00:35:01.103Z,23.92
2023-05-20T00:37:46.753Z,19.25
2023-05-20T00:40:31.884Z,24.25
2023-05-20T00:43:17.265Z,27.38
2023-05-20T00:46:02.597Z,23.25
2023-05-20T00:48:48.195Z,23.67
2023-05-20T00:51:35.233Z,23.63
2023-05-20T00:54:21.974Z,20.33
2023-05-20T00:57:08.143Z,25.15
2023-05-20T00:59:54.226Z,22.17
2023-05-20T01:02:39.880Z,24.13
2023-05-20T01:05:25.751Z,21.38
2023-05-20T01:08:11.035Z,20.52
2023-05-20T01:11:05.303Z,25.15
2023-05-20T01:13:55.742Z,20.73
2023-05-20T01:16:43.521Z,25.88
2023-05-20T01:19:38.365Z,20.30
2023-05-20T01:22:26.853Z,24.38
2023-05-20T01:25:12.406Z,23.65
2023-05-20T01:27:58.209Z,21.85
2023-05-20T01:30:50.945Z,22.67
2023-05-20T01:33:37.877Z,22.10
2023-05-20T01:36:24.043Z,23.92
2023-05-20T01:39:09.926Z,26.92
2023-05-20T01:41:56.054Z,20.08
2023-05-20T01:44:41.898Z,23.90
2023-05-20T01:47:27.522Z,21.25
2023-05-20T01:50:12.915Z,23.77
2023-05-20T01:52:59.294Z,26.20
2023-05-20T01:55:44.555Z,26.52
2023-05-20T01:58:30.626Z,24.58
2023-05-20T02:01:15.991Z,24.55
2023-05-20T02:04:02.345Z,22.77
2023-05-20T02:06:49.398Z,20.70
2023-05-20T02:09:34.892Z,22.77
2023-05-20T02:12:21.394Z,22.55
2023-05-20T02:15:07.229Z,26.73
2023-05-20T02:17:53.875Z,21.55
2023-05-20T02:20:39.678Z,22.63
2023-05-20T02:23:25.108Z,24.80
2023-05-20T02:26:10.330Z,23.50
2023-05-20T02:28:55.844Z,25.70
2023-05-20T02:31:41.192Z,28.20
2023-05-20T02:34:27.714Z,24.35
2023-05-20T02:37:13.160Z,26.17
2023-05-20T02:39:58.392Z,23.98
2023-05-20T02:42:43.738Z,41.15
2023-05-20T02:45:29.317Z,29.98
2023-05-20T02:48:15.070Z,32.10
2023-05-20T02:51:00.419Z,43.28
2023-05-20T02:53:46.420Z,32.00
2023-05-20T02:56:32.587Z,40.90
2023-05-20T02:59:20.667Z,37.47
2023-05-20T03:02:06.135Z,35.83
2023-05-20T03:04:54.061Z,41.10
2023-05-20T03:07:39.768Z,39.08
2023-05-20T03:10:25.551Z,34.47
2023-05-20T03:13:11.747Z,37.25
2023-05-20T03:15:57.493Z,35.35
2023-05-20T03:18:42.965Z,29.23
2023-05-20T03:21:29.280Z,28.08
2023-05-20T03:24:14.965Z,35.10
2023-05-20T03:27:00.400Z,37.30
2023-05-20T03:29:45.514Z,41.13
2023-05-20T03:32:31.992Z,37.17
2023-05-20T03:35:17.685Z,41.28
2023-05-20T03:38:03.131Z,38.38
2023-05-20T03:40:49.569Z,45.65
2023-05-20T03:43:35.349Z,44.60
2023-05-20T03:46:20.850Z,41.67
2023-05-20T03:49:06.220Z,40.85
2023-05-20T03:51:51.548Z,44.58
2023-05-20T03:54:37.614Z,42.22
2023-05-20T03:57:24.524Z,39.75
2023-05-20T04:00:12.085Z,40.08
2023-05-20T04:05:47.905Z,36.63
2023-05-20T04:08:38.304Z,38.17
2023-05-20T04:11:24.163Z,36.42
2023-05-20T04:14:11.192Z,32.65
2023-05-20T04:16:57.494Z,33.47
2023-05-20T04:19:45.063Z,40.50
2023-05-20T04:22:31.420Z,30.60
2023-05-20T04:25:17.178Z,38.65
2023-05-20T04:28:02.826Z,34.63
2023-05-20T04:30:48.340Z,31.50
2023-05-20T04:33:37.858Z,29.58
2023-05-20T04:36:28.736Z,30.05
2023-05-20T04:39:15.607Z,34.13
2023-05-20T04:42:02.927Z,31.80
2023-05-20T04:44:48.849Z,33.08
2023-05-20T04:47:38.728Z,33.47
2023-05-20T04:50:24.504Z,27.05
2023-05-20T04:53:09.904Z,26.23
2023-05-20T04:55:56.860Z,28.98
2023-05-20T04:58:42.747Z,36.70
2023-05-20T05:01:28.134Z,34.95
2023-05-20T05:04:13.901Z,35.63
2023-05-20T05:06:59.292Z,37.45
2023-05-20T05:09:44.611Z,32.80
2023-05-20T05:12:30.805Z,34.97
2023-05-20T05:15:17.348Z,34.08
2023-05-20T05:18:03.182Z,37.15
2023-05-20T05:20:49.090Z,28.60
2023-05-20T05:23:34.986Z,26.45
2023-05-20T05:26:20.980Z,31.02
2023-05-20T05:29:06.334Z,31.17
2023-05-20T05:31:52.072Z,29.88
2023-05-20T05:34:38.025Z,30.10
2023-05-20T05:37:23.222Z,26.90
2023-05-20T05:40:09.304Z,23.83
2023-05-20T05:42:55.316Z,24.48
2023-05-20T05:45:42.458Z,25.42
2023-05-20T05:48:28.279Z,21.60
2023-05-20T05:51:15.144Z,25.30
2023-05-20T05:54:00.751Z,23.60
2023-05-20T05:56:46.203Z,21.45
2023-05-20T05:59:31.947Z,26.38
2023-05-20T06:02:17.637Z,24.33
2023-05-20T06:05:04.351Z,23.70
2023-05-20T06:07:50.651Z,26.65
2023-05-20T06:10:37.231Z,23.58
2023-05-20T06:13:23.265Z,22.27
2023-05-20T06:16:09.593Z,22.48
2023-05-20T06:18:57.889Z,25.55
2023-05-20T06:21:43.961Z,25.95
2023-05-20T06:24:30.291Z,29.20
2023-05-20T06:27:16.540Z,20.13
2023-05-20T06:30:02.245Z,20.48
2023-05-20T06:32:48.712Z,23.92
2023-05-20T06:35:35.396Z,26.92
2023-05-20T06:38:22.412Z,25.10
2023-05-20T06:41:08.415Z,20.65
2023-05-20T06:43:53.880Z,23.23
2023-05-20T06:46:58.058Z,22.30
2023-05-20T06:49:46.592Z,28.20
2023-05-20T06:52:32.730Z,25.85
2023-05-20T06:55:18.635Z,26.83
2023-05-20T06:58:04.380Z,24.38
2023-05-20T07:00:51.089Z,24.33
2023-05-20T07:03:38.441Z,22.17
2023-05-20T07:06:24.253Z,27.05
2023-05-20T07:09:10.079Z,24.27
2023-05-20T07:11:56.860Z,25.77
2023-05-20T07:14:43.177Z,27.08
2023-05-20T07:17:29.473Z,21.63
2023-05-20T07:20:14.657Z,31.42
2023-05-20T07:23:01.037Z,34.05
2023-05-20T07:25:55.962Z,25.48
2023-05-20T07:28:41.418Z,25.80
2023-05-20T07:31:27.147Z,21.85
2023-05-20T07:34:12.721Z,20.48
2023-05-20T07:36:59.900Z,22.60
2023-05-20T07:39:45.322Z,26.75
2023-05-20T07:42:30.766Z,21.45
2023-05-20T07:45:19.153Z,21.65
2023-05-20T07:48:05.134Z,17.88
2023-05-20T07:50:50.898Z,15.02
2023-05-20T07:53:38.770Z,18.30
2023-05-20T07:56:24.804Z,12.23
2023-05-20T07:59:10.350Z,14.15
2023-05-20T08:02:01.110Z,15.93
2023-05-20T08:04:47.295Z,10.95
2023-05-20T08:07:32.658Z,11.05
2023-05-20T08:10:18.333Z,11.15
2023-05-20T08:13:05.686Z,8.95
2023-05-20T08:15:55.957Z,10.98
2023-05-20T08:18:42.931Z,8.90
2023-05-20T08:21:28.796Z,9.45
2023-05-20T08:24:14.789Z,11.77
2023-05-20T08:27:00.800Z,11.85
2023-05-20T08:29:46.111Z,9.40
2023-05-20T08:32:31.720Z,9.00
2023-05-20T08:35:17.836Z,8.32
2023-05-20T08:38:03.064Z,8.23
2023-05-20T08:40:56.497Z,11.60
2023-05-20T08:43:42.641Z,7.40
2023-05-20T08:46:30.219Z,9.43
2023-05-20T08:49:16.153Z,6.63
2023-05-20T08:52:03.283Z,6.43
2023-05-20T08:54:51.574Z,9.50
2023-05-20T08:57:38.325Z,7.22
2023-05-20T09:00:28.714Z,11.70
2023-05-20T09:03:14.414Z,9.40
2023-05-20T09:06:09.548Z,12.57
2023-05-20T09:08:55.200Z,9.82
2023-05-20T09:11:41.599Z,5.97
2023-05-20T09:14:29.919Z,6.68
2023-05-20T09:17:15.847Z,6.38
2023-05-20T09:20:01.633Z,5.70
2023-05-20T09:22:46.899Z,8.13
2023-05-20T09:25:34.421Z,17.88
2023-05-20T09:28:24.140Z,8.75
2023-05-20T09:31:09.797Z,5.35
2023-05-20T09:33:55.809Z,8.25
2023-05-20T09:36:44.389Z,5.72
2023-05-20T09:39:37.022Z,7.72
2023-05-20T09:42:26.605Z,7.97
2023-05-20T09:45:11.814Z,5.90
2023-05-20T09:47:58.207Z,7.97
2023-05-20T09:50:43.781Z,6.65
2023-05-20T09:53:29.120Z,6.38
2023-05-20T09:56:15.172Z,10.63
2023-05-20T09:59:02.559Z,11.10
2023-05-20T10:01:48.257Z,13.55
2023-05-20T10:04:37.270Z,8.13
2023-05-20T10:07:44.332Z,9.23
2023-05-20T10:10:51.065Z,6.68
2023-05-20T10:14:04.950Z,5.75
2023-05-20T10:17:08.845Z,8.25
2023-05-20T10:19:59.736Z,5.32
2023-05-20T10:22:56.059Z,5.10
2023-05-20T10:25:54.031Z,5.13
2023-05-20T10:28:41.669Z,5.13
2023-05-20T10:31:28.011Z,5.40
2023-05-20T10:34:18.146Z,9.63
2023-05-20T10:37:04.366Z,6.93
2023-05-20T10:39:49.628Z,6.30
2023-05-20T10:42:35.016Z,6.47
2023-05-20T10:45:28.772Z,9.20
2023-05-20T10:48:34.528Z,12.13
2023-05-20T10:51:21.285Z,5.53
2023-05-20T10:54:09.651Z,6.57
2023-05-20T10:56:55.641Z,6.50
2023-05-20T10:59:41.783Z,4.65
2023-05-20T11:02:28.694Z,4.28
2023-05-20T11:05:17.056Z,4.35
2023-05-20T11:08:08.011Z,6.20
2023-05-20T11:10:57.442Z,8.43
2023-05-20T11:13:43.205Z,5.55
2023-05-20T11:16:28.982Z,5.65
2023-05-20T11:19:16.421Z,9.32
2023-05-20T11:22:01.907Z,5.90
2023-05-20T11:24:47.506Z,4.00
2023-05-20T11:27:34.288Z,6.47
2023-05-20T11:30:20.751Z,7.93
2023-05-20T11:33:06.903Z,4.45
2023-05-20T11:35:54.098Z,9.68
2023-05-20T11:38:43.246Z,9.00
2023-05-20T11:41:29.728Z,3.70
2023-05-20T11:44:15.927Z,5.90
2023-05-20T11:47:03.682Z,4.00
2023-05-20T11:49:50.006Z,4.50
2023-05-20T11:52:35.391Z,5.15
2023-05-20T11:55:21.016Z,4.95
2023-05-20T11:58:06.679Z,5.10
2023-05-20T12:00:57.165Z,3.42
2023-05-20T12:03:51.427Z,3.00
2023-05-20T12:06:40.058Z,6.60
2023-05-20T12:09:26.796Z,5.78
2023-05-20T12:12:14.786Z,3.83
2023-05-20T12:15:00.694Z,4.00
2023-05-20T12:17:52.766Z,7.20
2023-05-20T12:20:39.328Z,4.88
2023-05-20T12:23:25.055Z,3.80
2023-05-20T12:26:11.401Z,4.28
2023-05-20T12:28:57.772Z,3.45
2023-05-20T12:31:44.077Z,6.63
2023-05-20T12:34:30.516Z,3.60
2023-05-20T12:37:16.435Z,3.03
2023-05-20T12:40:02.096Z,6.95
2023-05-20T12:42:48.668Z,5.47
2023-05-20T12:45:34.352Z,3.78
2023-05-20T12:48:20.086Z,7.90
2023-05-20T12:51:06.475Z,3.13
2023-05-20T12:53:51.985Z,2.65
2023-05-20T12:56:37.225Z,4.20
2023-05-20T12:59:22.815Z,2.33
2023-05-20T13:02:08.254Z,2.10
2023-05-20T13:04:54.309Z,7.05
2023-05-20T13:07:40.226Z,2.15
2023-05-20T13:10:25.757Z,3.60
2023-05-20T13:13:11.363Z,3.55
2023-05-20T13:15:58.091Z,3.67
2023-05-20T13:18:44.657Z,5.85
2023-05-20T13:21:31.819Z,6.10
2023-05-20T13:24:18.122Z,6.53
2023-05-20T13:27:03.921Z,6.00
2023-05-20T13:29:49.491Z,3.55
2023-05-20T13:32:35.041Z,2.60
2023-05-20T13:35:22.100Z,3.22
2023-05-20T13:38:08.197Z,3.42
2023-05-20T13:40:53.685Z,2.42
2023-05-20T13:43:42.107Z,2.65
2023-05-20T13:46:27.736Z,5.10
2023-05-20T13:49:12.864Z,8.27
2023-05-20T13:51:58.541Z,5.97
2023-05-20T13:54:46.791Z,2.88
2023-05-20T13:57:32.441Z,3.75
2023-05-20T14:00:18.067Z,6.25
2023-05-20T14:03:05.018Z,2.45
2023-05-20T14:05:51.325Z,4.22
2023-05-20T14:08:36.926Z,3.00
2023-05-20T14:11:22.394Z,2.05
2023-05-20T14:14:07.808Z,3.88
2023-05-20T14:16:53.551Z,2.88
2023-05-20T14:19:38.986Z,4.63
2023-05-20T14:22:24.791Z,7.38
2023-05-20T14:25:10.021Z,4.43
2023-05-20T14:27:55.455Z,2.70
2023-05-20T14:30:40.837Z,6.80
2023-05-20T14:33:26.151Z,2.22
2023-05-20T14:36:13.075Z,4.63
2023-05-20T14:38:59.587Z,4.00
2023-05-20T14:41:45.098Z,4.40
2023-05-20T14:44:31.352Z,3.17
2023-05-20T14:47:19.321Z,2.35
2023-05-20T14:50:05.412Z,7.45
2023-05-20T14:52:51.380Z,3.20
2023-05-20T14:55:37.058Z,6.13
2023-05-20T14:58:22.678Z,2.58
2023-05-20T15:01:08.115Z,3.60
2023-05-20T15:03:54.132Z,2.70
2023-05-20T15:06:39.598Z,9.15
2023-05-20T15:09:25.275Z,2.92
2023-05-20T15:12:11.324Z,4.43
2023-05-20T15:14:56.883Z,3.40
2023-05-20T15:17:42.569Z,2.80
2023-05-20T15:20:28.866Z,2.38
2023-05-20T15:23:14.132Z,6.35
2023-05-20T15:25:59.752Z,7.53
2023-05-20T15:28:45.568Z,5.85
2023-05-20T15:31:31.503Z,4.43
2023-05-20T15:34:18.345Z,2.67
2023-05-20T15:37:04.373Z,2.95
2023-05-20T15:39:50.055Z,5.15
2023-05-20T15:42:35.926Z,3.63
2023-05-20T15:45:21.863Z,4.43
2023-05-20T15:48:08.694Z,4.57
2023-05-20T15:50:54.035Z,6.05
2023-05-20T15:53:40.805Z,3.05
2023-05-20T15:56:26.356Z,2.28
2023-05-20T15:59:11.690Z,2.38
2023-05-20T16:01:56.999Z,3.35
2023-05-20T16:04:42.451Z,6.53
2023-05-20T16:07:28.081Z,2.00
2023-05-20T16:10:13.621Z,1.90
2023-05-20T16:13:03.089Z,5.25
2023-05-20T16:15:50.062Z,2.40
2023-05-20T16:18:35.432Z,3.28
2023-05-20T16:21:21.195Z,3.03
2023-05-20T16:24:06.849Z,6.93
2023-05-20T16:26:54.011Z,3.55
2023-05-20T16:29:39.952Z,3.65
2023-05-20T16:32:27.066Z,5.97
2023-05-20T16:35:14.313Z,2.45
2023-05-20T16:38:01.577Z,6.50
2023-05-20T16:40:47.246Z,3.20
2023-05-20T16:43:32.766Z,4.47
2023-05-20T16:46:18.180Z,2.45
2023-05-20T16:49:03.756Z,2.83
2023-05-20T16:51:52.176Z,2.80
2023-05-20T16:54:38.140Z,3.83
2023-05-20T16:57:23.852Z,6.43
2023-05-20T17:00:11.479Z,3.10
2023-05-20T17:02:56.796Z,5.45
2023-05-20T17:05:43.723Z,1.95
2023-05-20T17:08:29.934Z,4.90
2023-05-20T17:11:16.668Z,3.35
2023-05-20T17:14:03.016Z,133.63
2023-05-20T17:16:48.685Z,4.82
2023-05-20T17:19:34.086Z,2.83
2023-05-20T17:22:19.736Z,2.40
2023-05-20T17:25:05.876Z,3.00
2023-05-20T17:27:51.390Z,2.85
2023-05-20T17:30:37.051Z,4.13
2023-05-20T17:33:22.921Z,5.20
2023-05-20T17:36:08.754Z,8.40
2023-05-20T17:38:54.290Z,7.60
2023-05-20T17:41:40.926Z,3.47
2023-05-20T17:44:28.177Z,4.03
2023-05-20T17:47:14.692Z,4.60
2023-05-20T17:50:02.351Z,5.00
2023-05-20T17:52:47.884Z,3.67
2023-05-20T17:55:36.324Z,5.38
2023-05-20T17:58:24.887Z,4.53
2023-05-20T18:01:10.309Z,3.03
2023-05-20T18:03:57.391Z,4.43
2023-05-20T18:06:43.126Z,4.20
2023-05-20T18:09:28.510Z,3.85
2023-05-20T18:12:14.628Z,4.22
2023-05-20T18:15:00.167Z,1.88
2023-05-20T18:17:45.966Z,5.35
2023-05-20T18:20:31.828Z,1.95
2023-05-20T18:23:17.312Z,5.78
2023-05-20T18:26:06.944Z,8.20
2023-05-20T18:28:52.414Z,2.50
2023-05-20T18:31:38.550Z,3.58
2023-05-20T18:34:24.157Z,3.30
2023-05-20T18:37:09.758Z,2.65
2023-05-20T18:39:57.119Z,3.08
2023-05-20T18:42:42.381Z,3.33
2023-05-20T18:45:27.702Z,2.92
2023-05-20T18:48:17.927Z,4.32
2023-05-20T18:51:11.656Z,7.28
2023-05-20T18:53:57.094Z,1.98
2023-05-20T18:56:42.389Z,2.03
2023-05-20T18:59:27.916Z,2.10
2023-05-20T19:02:14.578Z,7.97
2023-05-20T19:05:01.582Z,4.38
2023-05-20T19:07:47.281Z,1.95
2023-05-20T19:10:32.976Z,1.80
2023-05-20T19:13:21.757Z,2.22
2023-05-20T19:16:07.752Z,3.28
2023-05-20T19:18:53.187Z,6.63
2023-05-20T19:21:41.921Z,6.70
2023-05-20T19:24:29.035Z,4.22
2023-05-20T19:27:14.267Z,3.65
2023-05-20T19:29:59.926Z,3.45
2023-05-20T19:32:45.534Z,5.50
2023-05-20T19:35:31.861Z,4.43
2023-05-20T19:38:17.829Z,3.60
2023-05-20T19:41:03.310Z,3.92
2023-05-20T19:43:49.318Z,3.08
2023-05-20T19:46:36.322Z,3.50
2023-05-20T19:49:22.237Z,1.75
2023-05-20T19:52:07.869Z,7.45
2023-05-20T19:54:53.453Z,2.17
2023-05-20T19:57:38.840Z,1.83
2023-05-20T20:00:24.352Z,2.72
2023-05-20T20:03:09.801Z,3.20
2023-05-20T20:05:55.474Z,2.70
2023-05-20T20:08:41.645Z,3.63
2023-05-20T20:11:27.329Z,5.57
2023-05-20T20:14:13.229Z,10.88
2023-05-20T20:16:59.856Z,7.68
2023-05-20T20:19:50.215Z,6.45
2023-05-20T20:22:38.871Z,7.13
2023-05-20T20:25:26.865Z,4.88
2023-05-20T20:28:12.658Z,3.08
2023-05-20T20:30:58.711Z,2.15
2023-05-20T20:33:44.237Z,9.98
2023-05-20T20:36:32.089Z,3.42
2023-05-20T20:39:20.978Z,8.30
2023-05-20T20:42:06.563Z,5.97
2023-05-20T20:44:52.983Z,12.93
2023-05-20T20:47:40.962Z,5.80
2023-05-20T20:50:28.285Z,6.72
2023-05-20T20:53:16.440Z,6.78
2023-05-20T20:56:01.629Z,3.63
2023-05-20T20:58:47.042Z,7.60
2023-05-20T21:01:36.403Z,5.97
2023-05-20T21:04:21.898Z,6.88
2023-05-20T21:07:07.298Z,4.95
2023-05-20T21:09:55.150Z,4.60
2023-05-20T21:12:40.574Z,6.25
2023-05-20T21:15:27.332Z,8.10
2023-05-20T21:18:14.025Z,7.63
2023-05-20T21:20:59.475Z,4.75
2023-05-20T21:23:44.925Z,5.70
2023-05-20T21:26:30.104Z,5.47
2023-05-20T21:29:15.697Z,4.18
2023-05-20T21:32:01.131Z,7.28
2023-05-20T21:34:46.176Z,9.48
2023-05-20T21:37:31.771Z,11.05
2023-05-20T21:40:17.295Z,12.80
2023-05-20T21:43:02.793Z,5.75
2023-05-20T21:45:48.078Z,10.32
2023-05-20T21:48:33.420Z,5.72
2023-05-20T21:51:18.845Z,4.07
2023-05-20T21:54:04.099Z,3.35
2023-05-20T21:56:49.573Z,2.45
2023-05-20T21:59:34.995Z,2.83
2023-05-20T22:02:20.616Z,7.10
2023-05-20T22:05:06.510Z,8.80
2023-05-20T22:07:53.002Z,4.80
2023-05-20T22:10:38.783Z,4.30
2023-05-20T22:13:26.128Z,5.85
2023-05-20T22:16:11.817Z,3.78
2023-05-20T22:18:57.350Z,4.43
2023-05-20T22:21:50.079Z,3.53
2023-05-20T22:24:36.356Z,3.88
2023-05-20T22:27:21.690Z,4.97
2023-05-20T22:30:08.328Z,4.07
2023-05-20T22:32:53.851Z,4.47
2023-05-20T22:35:39.137Z,2.72
2023-05-20T22:38:24.662Z,2.67
2023-05-20T22:41:10.370Z,3.03
2023-05-20T22:43:57.079Z,5.03
2023-05-20T22:46:42.514Z,3.83
2023-05-20T22:49:28.388Z,3.58
2023-05-20T22:52:13.668Z,3.33
2023-05-20T22:54:59.000Z,4.72
2023-05-20T22:57:44.376Z,7.10
2023-05-20T23:00:29.782Z,6.35
2023-05-20T23:03:15.204Z,4.95
2023-05-20T23:06:00.992Z,5.68
2023-05-20T23:08:47.409Z,3.22
2023-05-20T23:11:33.143Z,2.70
2023-05-20T23:14:19.951Z,5.35
2023-05-20T23:17:05.576Z,4.35
2023-05-20T23:19:51.502Z,6.70
2023-05-20T23:22:37.614Z,3.58
2023-05-20T23:25:24.442Z,5.03
2023-05-20T23:28:10.017Z,2.72
2023-05-20T23:30:56.595Z,4.38
2023-05-20T23:33:42.468Z,3.45
2023-05-20T23:36:34.416Z,5.32
2023-05-20T23:39:19.620Z,6.72
2023-05-20T23:42:05.386Z,2.92
2023-05-20T23:44:50.690Z,2.40
2023-05-20T23:47:36.535Z,4.55
2023-05-20T23:50:21.999Z,4.38
2023-05-20T23:53:07.258Z,6.10
2023-05-20T23:55:52.762Z,2.78
2023-05-20T23:58:38.124Z,5.35
